createdAt,value
2024-03-16T00:00:48.929Z,98751.09
2024-03-16T00:03:15.738Z,98750.28
2024-03-16T00:05:43.204Z,98748.47
2024-03-16T00:08:09.972Z,98747.81
2024-03-16T00:10:36.934Z,98750.91
2024-03-16T00:13:04.030Z,98750.28
2024-03-16T00:15:30.874Z,98754.47
2024-03-16T00:17:57.704Z,98751.84
2024-03-16T00:20:27.007Z,98746.53
2024-03-16T00:22:53.823Z,98743.84
2024-03-16T00:25:20.796Z,98742.69
2024-03-16T00:27:47.616Z,98748.28
2024-03-16T00:30:15.412Z,98744.25
2024-03-16T00:32:42.296Z,98746.97
2024-03-16T00:35:09.222Z,98741.47
2024-03-16T00:37:36.066Z,98740.56
2024-03-16T00:40:03.102Z,98748.44
2024-03-16T00:42:30.010Z,98734.88
2024-03-16T00:44:56.756Z,98740.97
2024-03-16T00:47:23.519Z,98736.72
2024-03-16T00:49:50.421Z,98738.25
2024-03-16T00:52:17.218Z,98741.34
2024-03-16T00:54:44.185Z,98737.63
2024-03-16T00:57:11.069Z,98736.72
2024-03-16T00:59:37.896Z,98739.97
2024-03-16T01:02:05.336Z,98741.81
2024-03-16T01:04:34.983Z,98736.88
2024-03-16T01:07:01.984Z,98737.75
2024-03-16T01:09:28.916Z,98746.25
2024-03-16T01:11:55.931Z,98749.13
2024-03-16T01:14:22.700Z,98744.56
2024-03-16T01:16:49.601Z,98735.19
2024-03-16T01:19:16.547Z,98745.63
2024-03-16T01:21:43.762Z,98738.31
2024-03-16T01:24:10.769Z,98739.22
2024-03-16T01:26:37.589Z,98735.19
2024-03-16T01:29:05.401Z,98733.97
2024-03-16T01:31:32.265Z,98739.69
2024-03-16T01:33:59.292Z,98742.22
2024-03-16T01:36:26.327Z,98740.38
2024-03-16T01:38:53.273Z,98738.81
2024-03-16T01:41:23.367Z,98741.97
2024-03-16T01:43:50.180Z,98750.38
2024-03-16T01:46:17.559Z,98747.63
2024-03-16T01:48:44.496Z,98740.22
2024-03-16T01:51:11.430Z,98743.75
2024-03-16T01:53:39.409Z,98735.19
2024-03-16T01:56:06.525Z,98734.41
2024-03-16T01:58:42.492Z,98744.75
2024-03-16T02:01:09.449Z,98740.69
2024-03-16T02:03:36.430Z,98750.31
2024-03-16T02:06:03.358Z,98742.06
2024-03-16T02:08:30.607Z,98741.00
2024-03-16T02:10:57.462Z,98749.13
2024-03-16T02:13:24.450Z,98751.13
2024-03-16T02:15:51.332Z,98755.44
2024-03-16T02:18:18.147Z,98758.69
2024-03-16T02:20:44.912Z,98761.75
2024-03-16T02:23:11.699Z,98755.75
2024-03-16T02:25:38.493Z,98754.75
2024-03-16T02:28:05.962Z,98750.63
2024-03-16T02:30:32.907Z,98746.66
2024-03-16T02:32:59.958Z,98742.25
2024-03-16T02:35:26.979Z,98744.41
2024-03-16T02:37:53.772Z,98743.59
2024-03-16T02:40:20.605Z,98751.06
2024-03-16T02:42:47.684Z,98753.25
2024-03-16T02:45:14.507Z,98749.13
2024-03-16T02:47:41.309Z,98749.78
2024-03-16T02:50:11.277Z,98752.22
2024-03-16T02:52:39.203Z,98757.88
2024-03-16T02:55:06.710Z,98754.38
2024-03-16T02:57:33.600Z,98752.13
2024-03-16T03:00:00.594Z,98760.16
2024-03-16T03:02:29.193Z,98758.72
2024-03-16T03:04:56.007Z,98767.19
2024-03-16T03:07:22.818Z,98758.66
2024-03-16T03:09:49.643Z,98757.31
2024-03-16T03:12:16.676Z,98755.34
2024-03-16T03:14:43.430Z,98756.53
2024-03-16T03:17:10.266Z,98753.91
2024-03-16T03:19:37.121Z,98750.34
2024-03-16T03:22:03.916Z,98762.50
2024-03-16T03:24:30.742Z,98765.88
2024-03-16T03:26:57.530Z,98765.81
2024-03-16T03:29:24.378Z,98760.16
2024-03-16T03:31:51.088Z,98770.88
2024-03-16T03:34:17.946Z,98777.53
2024-03-16T03:36:45.804Z,98772.38
2024-03-16T03:39:15.535Z,98772.13
2024-03-16T03:41:42.498Z,98772.00
2024-03-16T03:44:22.100Z,98769.66
2024-03-16T03:46:52.903Z,98774.56
2024-03-16T03:49:40.840Z,98779.59
2024-03-16T03:52:07.737Z,98788.06
2024-03-16T03:54:35.905Z,98779.38
2024-03-16T03:57:03.736Z,98785.25
2024-03-16T03:59:30.692Z,98785.53
2024-03-16T04:01:57.640Z,98780.44
2024-03-16T04:04:24.464Z,98778.53
2024-03-16T04:06:51.281Z,98775.63
2024-03-16T04:09:18.194Z,98782.50
2024-03-16T04:11:44.937Z,98767.47
2024-03-16T04:14:11.743Z,98771.50
2024-03-16T04:16:38.551Z,98774.41
2024-03-16T04:19:05.323Z,98774.69
2024-03-16T04:21:32.274Z,98776.56
2024-03-16T04:23:59.180Z,98780.19
2024-03-16T04:26:26.419Z,98783.22
2024-03-16T04:28:53.531Z,98782.81
2024-03-16T04:31:20.348Z,98790.13
2024-03-16T04:33:47.213Z,98799.97
2024-03-16T04:36:15.044Z,98793.72
2024-03-16T04:38:42.011Z,98797.41
2024-03-16T04:41:08.951Z,98802.78
2024-03-16T04:43:35.935Z,98803.03
2024-03-16T04:46:02.846Z,98813.59
2024-03-16T04:48:29.769Z,98810.53
2024-03-16T04:50:57.269Z,98817.19
2024-03-16T04:53:24.212Z,98825.22
2024-03-16T04:55:53.692Z,98814.09
2024-03-16T04:58:20.738Z,98821.47
2024-03-16T05:00:47.749Z,98818.13
2024-03-16T05:03:14.663Z,98820.69
2024-03-16T05:05:41.444Z,98822.31
2024-03-16T05:08:11.007Z,98828.50
2024-03-16T05:10:37.817Z,98821.53
2024-03-16T05:13:04.730Z,98815.09
2024-03-16T05:15:31.709Z,98812.81
2024-03-16T05:17:59.235Z,98825.56
2024-03-16T05:20:26.242Z,98826.94
2024-03-16T05:22:53.833Z,98818.53
2024-03-16T05:25:20.866Z,98822.44
2024-03-16T05:27:48.125Z,98816.72
2024-03-16T05:30:16.530Z,98821.03
2024-03-16T05:32:44.138Z,98823.72
2024-03-16T05:35:11.722Z,98827.56
2024-03-16T05:37:38.790Z,98828.50
2024-03-16T05:40:05.940Z,98822.50
2024-03-16T05:42:38.508Z,98831.97
2024-03-16T05:45:06.568Z,98828.56
2024-03-16T05:47:33.362Z,98833.72
2024-03-16T05:50:00.953Z,98833.22
2024-03-16T05:52:27.738Z,98836.66
2024-03-16T05:54:54.668Z,98835.63
2024-03-16T05:57:21.926Z,98835.28
2024-03-16T05:59:52.908Z,98832.81
2024-03-16T06:02:20.128Z,98840.69
2024-03-16T06:04:46.950Z,98850.69
2024-03-16T06:07:13.751Z,98853.81
2024-03-16T06:09:40.678Z,98851.41
2024-03-16T06:12:07.553Z,98855.28
2024-03-16T06:14:37.447Z,98867.63
2024-03-16T06:17:04.300Z,98871.50
2024-03-16T06:19:31.182Z,98873.84
2024-03-16T06:21:58.049Z,98878.69
2024-03-16T06:24:24.888Z,98878.59
2024-03-16T06:27:01.697Z,98881.50
2024-03-16T06:29:32.313Z,98880.81
2024-03-16T06:32:06.849Z,98879.94
2024-03-16T06:34:37.301Z,98885.69
2024-03-16T06:37:05.351Z,98888.09
2024-03-16T06:39:32.374Z,98897.41
2024-03-16T06:41:59.209Z,98894.28
2024-03-16T06:44:25.941Z,98888.22
2024-03-16T06:46:52.917Z,98897.09
2024-03-16T06:49:19.813Z,98904.56
2024-03-16T06:51:46.726Z,98909.81
2024-03-16T06:54:16.671Z,98911.22
2024-03-16T06:56:43.499Z,98925.34
2024-03-16T06:59:10.389Z,98928.13
2024-03-16T07:01:37.235Z,98931.75
2024-03-16T07:04:04.176Z,98934.28
2024-03-16T07:06:31.164Z,98937.72
2024-03-16T07:09:01.285Z,98942.19
2024-03-16T07:11:28.174Z,98938.66
2024-03-16T07:13:55.299Z,98934.97
2024-03-16T07:16:22.587Z,98948.03
2024-03-16T07:18:49.603Z,98949.56
2024-03-16T07:21:17.053Z,98956.25
2024-03-16T07:23:45.223Z,98956.41
2024-03-16T07:26:12.158Z,98958.88
2024-03-16T07:28:39.581Z,98964.34
2024-03-16T07:31:06.476Z,98969.75
2024-03-16T07:33:33.370Z,98974.22
2024-03-16T07:36:00.201Z,98976.44
2024-03-16T07:38:27.455Z,98983.59
2024-03-16T07:40:54.434Z,98982.81
2024-03-16T07:43:21.540Z,98985.72
2024-03-16T07:45:51.891Z,98979.00
2024-03-16T07:48:18.805Z,98978.47
2024-03-16T07:50:45.654Z,98992.72
2024-03-16T07:53:12.594Z,98998.16
2024-03-16T07:55:39.655Z,98990.84
2024-03-16T07:58:06.623Z,98994.72
2024-03-16T08:00:33.612Z,99001.59
2024-03-16T08:03:01.726Z,99005.00
2024-03-16T08:05:29.556Z,99005.13
2024-03-16T08:07:56.249Z,99011.66
2024-03-16T08:10:23.775Z,99008.66
2024-03-16T08:12:50.606Z,99009.22
2024-03-16T08:15:18.917Z,99024.66
2024-03-16T08:17:46.137Z,99022.91
2024-03-16T08:20:16.393Z,99021.69
2024-03-16T08:22:45.026Z,99027.13
2024-03-16T08:25:11.967Z,99029.31
2024-03-16T08:27:39.048Z,99027.63
2024-03-16T08:30:06.575Z,99030.00
2024-03-16T08:32:34.158Z,99030.00
2024-03-16T08:35:00.999Z,99027.88
2024-03-16T08:37:27.772Z,99030.22
2024-03-16T08:39:54.734Z,99028.47
2024-03-16T08:42:21.673Z,99028.97
2024-03-16T08:44:48.661Z,99027.59
2024-03-16T08:47:15.507Z,99028.88
2024-03-16T08:49:42.271Z,99030.44
2024-03-16T08:52:09.206Z,99034.56
2024-03-16T08:54:36.712Z,99042.69
2024-03-16T08:57:05.282Z,99042.09
2024-03-16T08:59:32.587Z,99037.44
2024-03-16T09:02:00.642Z,99039.56
2024-03-16T09:04:27.713Z,99050.66
2024-03-16T09:06:54.673Z,99050.69
2024-03-16T09:09:22.974Z,99051.28
2024-03-16T09:11:50.299Z,99054.19
2024-03-16T09:14:17.179Z,99059.06
2024-03-16T09:16:44.503Z,99051.84
2024-03-16T09:19:12.269Z,99053.06
2024-03-16T09:21:39.505Z,99055.78
2024-03-16T09:24:07.824Z,99060.00
2024-03-16T09:26:35.639Z,99064.22
2024-03-16T09:29:02.434Z,99063.13
2024-03-16T09:31:29.299Z,99069.16
2024-03-16T09:33:56.245Z,99073.63
2024-03-16T09:36:23.078Z,99068.34
2024-03-16T09:38:50.011Z,99079.72
2024-03-16T09:41:21.272Z,99072.34
